createdAt,value
2022-11-20T00:02:13.875Z,18.23
2022-11-20T00:04:44.705Z,19.07
2022-11-20T00:07:24.965Z,19.37
2022-11-20T00:09:54.552Z,19.20
2022-11-20T00:12:23.080Z,19.17
2022-11-20T00:14:52.855Z,18.27
2022-11-20T00:17:22.310Z,18.97
2022-11-20T00:19:50.580Z,18.67
2022-11-20T00:22:18.874Z,18.43
2022-11-20T00:28:09.676Z,18.13
2022-11-20T00:30:41.776Z,18.23
2022-11-20T00:33:10.011Z,18.50
2022-11-20T00:35:38.520Z,19.37
2022-11-20T00:38:07.000Z,18.63
2022-11-20T00:40:35.237Z,19.30
2022-11-20T00:43:04.983Z,18.93
2022-11-20T00:45:37.865Z,18.53
2022-11-20T00:48:18.063Z,18.23
2022-11-20T00:50:46.420Z,19.63
2022-11-20T00:53:16.873Z,20.03
2022-11-20T00:55:55.911Z,18.10
2022-11-20T00:58:24.804Z,17.90
2022-11-20T01:00:53.295Z,19.80
2022-11-20T01:03:26.995Z,18.30
2022-11-20T01:05:55.511Z,19.23
2022-11-20T01:08:23.918Z,19.47
2022-11-20T01:10:52.097Z,18.70
2022-11-20T01:13:37.721Z,18.03
2022-11-20T01:16:07.539Z,18.20
2022-11-20T01:18:43.185Z,18.17
2022-11-20T01:21:14.850Z,17.33
2022-11-20T01:23:44.016Z,18.63
2022-11-20T01:26:15.963Z,17.47
2022-11-20T01:28:44.963Z,17.37
2022-11-20T01:31:15.022Z,18.17
2022-11-20T01:33:46.116Z,17.77
2022-11-20T01:36:18.287Z,18.40
2022-11-20T01:38:46.818Z,18.50
2022-11-20T01:41:37.712Z,17.97
2022-11-20T01:44:05.586Z,17.53
2022-11-20T01:46:35.350Z,16.77
2022-11-20T01:49:14.954Z,17.43
2022-11-20T01:51:50.543Z,16.50
2022-11-20T01:54:21.611Z,18.07
2022-11-20T01:56:52.891Z,18.10
2022-11-20T01:59:26.640Z,17.23
2022-11-20T02:01:55.525Z,18.33
2022-11-20T02:04:26.699Z,17.73
2022-11-20T02:07:01.669Z,17.83
2022-11-20T02:09:31.655Z,16.17
2022-11-20T02:12:01.492Z,16.50
2022-11-20T02:14:30.189Z,17.40
2022-11-20T02:17:00.092Z,16.00
2022-11-20T02:19:32.548Z,17.23
2022-11-20T02:22:07.978Z,16.40
2022-11-20T02:24:39.014Z,17.00
2022-11-20T02:27:11.137Z,16.83
2022-11-20T02:29:44.395Z,17.27
2022-11-20T02:32:21.002Z,18.33
2022-11-20T02:34:49.268Z,17.27
2022-11-20T02:37:18.972Z,18.50
2022-11-20T02:39:51.486Z,18.07
2022-11-20T02:42:21.099Z,18.63
2022-11-20T02:44:49.350Z,17.67
2022-11-20T02:47:17.828Z,18.10
2022-11-20T02:49:46.082Z,18.00
2022-11-20T02:52:14.242Z,17.60
2022-11-20T02:54:42.532Z,17.73
2022-11-20T02:57:13.683Z,17.97
2022-11-20T02:59:43.125Z,18.13
2022-11-20T03:02:13.572Z,18.33
2022-11-20T03:04:41.775Z,17.87
2022-11-20T03:07:10.951Z,17.30
2022-11-20T03:09:39.382Z,16.87
2022-11-20T03:12:08.111Z,17.47
2022-11-20T03:14:38.992Z,17.00
2022-11-20T03:17:08.790Z,18.10
2022-11-20T03:19:38.327Z,18.23
2022-11-20T03:22:17.343Z,18.37
2022-11-20T03:24:50.190Z,17.23
2022-11-20T03:27:19.978Z,17.67
2022-11-20T03:29:49.611Z,18.13
2022-11-20T03:32:17.791Z,17.63
2022-11-20T03:34:46.076Z,18.60
2022-11-20T03:37:15.492Z,18.50
2022-11-20T03:39:43.626Z,16.80
2022-11-20T03:42:35.641Z,17.43
2022-11-20T03:45:08.642Z,17.40
2022-11-20T03:47:38.592Z,18.43
2022-11-20T03:50:07.501Z,19.27
2022-11-20T03:52:35.727Z,18.87
2022-11-20T03:55:04.072Z,18.53
2022-11-20T03:57:32.563Z,18.43
2022-11-20T04:00:16.534Z,18.97
2022-11-20T04:02:47.452Z,18.20
2022-11-20T04:05:16.831Z,18.30
2022-11-20T04:07:47.564Z,17.87
2022-11-20T04:10:15.799Z,18.60
2022-11-20T04:12:44.654Z,17.73
2022-11-20T04:15:14.571Z,17.73
2022-11-20T04:17:42.930Z,17.87
2022-11-20T04:20:14.245Z,15.67
2022-11-20T04:22:42.696Z,17.57
2022-11-20T04:25:11.205Z,17.73
2022-11-20T04:27:39.537Z,16.17
2022-11-20T04:30:10.230Z,16.83
2022-11-20T04:32:38.578Z,17.70
2022-11-20T04:35:08.538Z,17.20
2022-11-20T04:37:42.083Z,16.93
2022-11-20T04:40:16.830Z,16.80
2022-11-20T04:42:46.183Z,19.07
2022-11-20T04:45:15.524Z,16.73
2022-11-20T04:47:46.574Z,17.90
2022-11-20T04:50:17.671Z,18.73
2022-11-20T04:52:47.349Z,18.53
2022-11-20T04:55:15.708Z,19.73
2022-11-20T04:57:53.659Z,18.43
2022-11-20T05:00:21.960Z,17.20
2022-11-20T05:02:50.296Z,17.77
2022-11-20T05:05:20.307Z,17.40
2022-11-20T05:07:49.997Z,17.23
2022-11-20T05:10:19.699Z,15.87
2022-11-20T05:12:51.074Z,17.87
2022-11-20T05:15:20.732Z,17.83
2022-11-20T05:17:59.329Z,17.60
2022-11-20T05:20:35.918Z,18.40
2022-11-20T05:23:08.540Z,17.13
2022-11-20T05:25:36.682Z,17.63
2022-11-20T05:28:06.414Z,17.13
2022-11-20T05:30:37.017Z,17.23
2022-11-20T05:33:05.214Z,17.53
2022-11-20T05:35:34.742Z,17.53
2022-11-20T05:38:03.019Z,18.20
2022-11-20T05:40:41.354Z,16.57
2022-11-20T05:43:39.217Z,16.63
2022-11-20T05:46:11.874Z,16.70
2022-11-20T05:48:58.884Z,15.97
2022-11-20T05:51:43.113Z,15.70
2022-11-20T05:57:05.270Z,16.77
2022-11-20T05:59:33.584Z,16.67
2022-11-20T06:02:03.063Z,17.13
2022-11-20T06:04:33.773Z,17.63
2022-11-20T06:07:02.271Z,15.50
2022-11-20T06:09:32.039Z,16.47
2022-11-20T06:12:13.780Z,16.47
2022-11-20T06:14:44.107Z,17.03
2022-11-20T06:17:12.357Z,16.90
2022-11-20T06:19:43.177Z,13.70
2022-11-20T06:22:12.742Z,15.07
2022-11-20T06:24:45.392Z,16.03
2022-11-20T06:27:15.520Z,15.20
2022-11-20T06:29:45.844Z,17.03
2022-11-20T06:32:17.625Z,15.47
2022-11-20T06:34:45.854Z,15.77
2022-11-20T06:37:20.935Z,15.83
2022-11-20T06:39:49.684Z,16.77
2022-11-20T06:42:19.546Z,15.40
2022-11-20T06:44:49.256Z,16.03
2022-11-20T06:47:17.825Z,16.33
2022-11-20T06:49:47.218Z,15.50
2022-11-20T06:52:22.582Z,15.30
2022-11-20T06:54:52.684Z,16.10
2022-11-20T06:57:25.081Z,15.60
2022-11-20T06:59:54.616Z,16.77
2022-11-20T07:02:24.087Z,16.70
2022-11-20T07:04:55.047Z,17.03
2022-11-20T07:07:24.589Z,15.83
2022-11-20T07:09:56.549Z,15.80
2022-11-20T07:12:30.536Z,16.23
2022-11-20T07:14:59.148Z,17.67
2022-11-20T07:17:31.830Z,17.50
2022-11-20T07:20:00.354Z,17.03
2022-11-20T07:22:28.599Z,16.53
2022-11-20T07:24:57.150Z,16.17
2022-11-20T07:27:37.368Z,17.77
2022-11-20T07:30:09.798Z,17.83
2022-11-20T07:32:39.572Z,17.73
2022-11-20T07:35:08.404Z,16.90
2022-11-20T07:37:39.139Z,18.47
2022-11-20T07:40:08.678Z,17.53
2022-11-20T07:42:38.016Z,18.50
2022-11-20T07:45:08.599Z,19.17
2022-11-20T07:47:38.659Z,18.47
2022-11-20T07:50:08.558Z,18.37
2022-11-20T07:52:43.346Z,17.30
2022-11-20T07:55:12.532Z,17.37
2022-11-20T07:57:41.280Z,17.83
2022-11-20T08:00:15.496Z,17.90
2022-11-20T08:02:44.361Z,18.27
2022-11-20T08:05:17.309Z,17.90
2022-11-20T08:07:47.103Z,18.97
2022-11-20T08:10:17.362Z,17.63
2022-11-20T08:13:13.322Z,17.47
2022-11-20T08:15:43.103Z,18.63
2022-11-20T08:18:30.777Z,18.33
2022-11-20T08:21:03.870Z,18.63
2022-11-20T08:23:47.789Z,18.83
2022-11-20T08:26:24.375Z,17.47
2022-11-20T08:29:06.741Z,17.53
2022-11-20T08:35:22.620Z,18.77
2022-11-20T08:37:52.315Z,23.87
2022-11-20T08:43:52.193Z,18.97
2022-11-20T08:46:32.766Z,19.43
2022-11-20T08:49:06.882Z,19.87
2022-11-20T08:51:41.122Z,20.00
2022-11-20T08:54:35.636Z,19.97
2022-11-20T08:57:06.029Z,19.27
2022-11-20T09:00:05.012Z,19.93
2022-11-20T09:02:30.612Z,19.00
2022-11-20T09:05:01.516Z,19.67
2022-11-20T09:07:33.514Z,19.47
2022-11-20T09:10:23.167Z,20.17
2022-11-20T09:12:56.244Z,19.23
2022-11-20T09:15:29.341Z,18.60
2022-11-20T09:21:10.377Z,19.50
2022-11-20T09:23:40.785Z,19.10
2022-11-20T09:26:14.003Z,18.83
2022-11-20T09:28:44.192Z,18.73
2022-11-20T09:31:27.019Z,19.23
2022-11-20T09:34:16.117Z,17.20
2022-11-20T09:36:46.590Z,18.57
2022-11-20T09:39:14.934Z,18.47
2022-11-20T09:42:26.028Z,18.63
2022-11-20T09:45:21.303Z,18.73
2022-11-20T09:48:16.816Z,19.13
2022-11-20T09:51:14.887Z,17.53
2022-11-20T09:57:22.518Z,17.70
2022-11-20T09:59:58.836Z,17.63
2022-11-20T10:02:41.896Z,19.70
2022-11-20T10:05:17.909Z,21.27
2022-11-20T10:07:56.581Z,18.57
2022-11-20T10:10:34.171Z,17.87
2022-11-20T10:13:33.132Z,17.03
2022-11-20T10:16:12.086Z,17.20
2022-11-20T10:19:13.989Z,17.23
2022-11-20T10:22:05.555Z,66.60
2022-11-20T10:28:34.964Z,16.23
2022-11-20T10:31:12.185Z,15.67
2022-11-20T10:34:05.408Z,16.30
2022-11-20T10:36:39.100Z,14.60
2022-11-20T10:39:28.665Z,14.70
2022-11-20T10:42:26.135Z,12.90
2022-11-20T10:45:06.745Z,12.27
2022-11-20T10:47:38.556Z,13.13
2022-11-20T10:50:19.007Z,12.67
2022-11-20T10:53:00.428Z,11.93
2022-11-20T10:55:44.068Z,12.70
2022-11-20T10:58:19.859Z,11.50
2022-11-20T11:00:49.482Z,12.50
2022-11-20T11:03:28.871Z,13.40
2022-11-20T11:06:09.755Z,13.10
2022-11-20T11:08:42.883Z,14.03
2022-11-20T11:11:36.992Z,19.60
2022-11-20T11:14:40.274Z,23.10
2022-11-20T11:17:36.491Z,15.07
2022-11-20T11:20:32.183Z,16.87
2022-11-20T11:23:03.421Z,16.00
2022-11-20T11:25:41.742Z,14.97
2022-11-20T11:28:42.357Z,14.33
2022-11-20T11:31:11.967Z,15.60
2022-11-20T11:33:42.093Z,14.53
2022-11-20T11:36:26.310Z,14.80
2022-11-20T11:38:58.241Z,14.53
2022-11-20T11:41:34.855Z,12.30
2022-11-20T11:44:49.071Z,13.43
2022-11-20T11:47:26.663Z,11.40
2022-11-20T11:50:07.717Z,11.27
2022-11-20T11:52:46.634Z,9.77
2022-11-20T11:55:22.865Z,9.93
2022-11-20T11:58:00.422Z,13.00
2022-11-20T12:00:32.036Z,12.13
2022-11-20T12:03:19.631Z,10.87
2022-11-20T12:06:19.360Z,9.67
2022-11-20T12:08:58.918Z,9.17
2022-11-20T12:17:20.175Z,9.00
2022-11-20T12:19:48.722Z,8.60
2022-11-20T12:22:33.345Z,9.30
2022-11-20T12:25:10.962Z,10.40
2022-11-20T12:28:19.623Z,9.63
2022-11-20T12:31:04.471Z,9.37
2022-11-20T12:33:49.792Z,8.80
2022-11-20T12:36:32.605Z,12.63
2022-11-20T12:40:17.371Z,10.20
2022-11-20T12:43:21.684Z,10.13
2022-11-20T12:46:15.063Z,10.87
2022-11-20T12:49:12.832Z,9.33
2022-11-20T12:52:14.489Z,9.77
2022-11-20T12:55:05.287Z,12.37
2022-11-20T13:04:54.163Z,9.67
2022-11-20T13:07:38.478Z,8.37
2022-11-20T13:10:16.216Z,8.90
2022-11-20T13:13:20.184Z,9.50
2022-11-20T13:16:21.541Z,9.10
2022-11-20T13:21:59.316Z,8.40
2022-11-20T13:24:32.957Z,8.73
2022-11-20T13:27:22.481Z,9.90
2022-11-20T13:36:37.774Z,8.27
2022-11-20T13:39:08.843Z,8.43
2022-11-20T13:41:41.166Z,10.03
2022-11-20T13:44:31.155Z,8.90
2022-11-20T13:47:06.829Z,8.50
2022-11-20T13:49:51.011Z,7.63
2022-11-20T13:52:59.436Z,9.13
2022-11-20T13:55:37.159Z,7.77
2022-11-20T13:58:33.040Z,9.07
2022-11-20T14:01:14.825Z,8.07
2022-11-20T14:04:05.019Z,8.43
2022-11-20T14:06:44.509Z,8.23
2022-11-20T14:09:42.065Z,9.50
2022-11-20T14:12:28.230Z,8.67
2022-11-20T14:14:58.104Z,9.07
2022-11-20T14:17:31.935Z,8.50
2022-11-20T14:20:03.359Z,8.83
2022-11-20T14:22:38.602Z,8.37
2022-11-20T14:25:34.102Z,9.50
2022-11-20T14:31:18.927Z,9.73
2022-11-20T14:34:01.192Z,9.53
2022-11-20T14:36:53.503Z,8.93
2022-11-20T14:39:25.031Z,8.37
2022-11-20T14:41:55.860Z,9.70
2022-11-20T14:44:29.934Z,9.70
2022-11-20T14:47:18.089Z,9.10
2022-11-20T14:49:55.946Z,11.00
2022-11-20T14:52:26.939Z,11.57
2022-11-20T14:55:03.477Z,9.80
2022-11-20T15:01:14.878Z,9.70
2022-11-20T15:03:56.257Z,11.47
2022-11-20T15:06:40.492Z,9.50
2022-11-20T15:09:30.549Z,9.50
2022-11-20T15:16:22.948Z,10.20
2022-11-20T15:19:09.228Z,9.77
2022-11-20T15:21:56.456Z,11.50
2022-11-20T15:24:35.383Z,11.50
2022-11-20T15:27:13.257Z,9.23
2022-11-20T15:30:00.438Z,10.37
2022-11-20T15:32:40.132Z,10.97
2022-11-20T15:35:23.665Z,10.67
2022-11-20T15:38:16.761Z,10.80
2022-11-20T15:40:45.601Z,10.17
2022-11-20T15:43:14.161Z,10.67
2022-11-20T15:45:45.424Z,11.03
2022-11-20T15:48:32.548Z,11.77
2022-11-20T15:51:11.290Z,13.00
2022-11-20T15:54:04.816Z,12.77
2022-11-20T15:56:34.516Z,13.87
2022-11-20T15:59:07.408Z,14.20
2022-11-20T16:01:36.965Z,14.07
2022-11-20T16:04:20.955Z,13.87
2022-11-20T16:06:49.582Z,14.10
2022-11-20T16:09:22.004Z,14.37
2022-11-20T16:11:54.595Z,13.13
2022-11-20T16:14:46.219Z,14.50
2022-11-20T16:17:39.725Z,14.37
2022-11-20T16:20:16.664Z,14.13
2022-11-20T16:22:46.929Z,12.90
2022-11-20T16:25:16.234Z,13.03
2022-11-20T16:27:46.831Z,14.27
2022-11-20T16:30:16.159Z,11.90
2022-11-20T16:32:48.055Z,12.80
2022-11-20T16:39:16.706Z,12.93
2022-11-20T16:41:52.280Z,13.00
2022-11-20T16:44:28.477Z,13.80
2022-11-20T16:47:04.799Z,12.87
2022-11-20T16:49:36.545Z,13.37
2022-11-20T16:52:06.485Z,13.67
2022-11-20T16:54:45.455Z,13.43
2022-11-20T16:57:13.767Z,13.20
2022-11-20T17:03:05.482Z,12.90
2022-11-20T17:05:37.091Z,12.90
2022-11-20T17:08:06.027Z,13.23
2022-11-20T17:10:37.408Z,11.93
2022-11-20T17:13:05.759Z,12.63
2022-11-20T17:15:36.479Z,12.87
2022-11-20T17:18:07.116Z,13.00
2022-11-20T17:20:36.787Z,11.17
2022-11-20T17:23:05.734Z,11.73
2022-11-20T17:25:38.376Z,12.07
2022-11-20T17:28:10.401Z,11.60
2022-11-20T17:30:38.725Z,11.83
2022-11-20T17:33:07.002Z,10.90
2022-11-20T17:35:40.432Z,11.13
2022-11-20T17:38:12.142Z,11.17
2022-11-20T17:40:45.998Z,10.90
2022-11-20T17:43:15.011Z,11.57
2022-11-20T17:45:44.549Z,11.03
2022-11-20T17:48:14.788Z,11.57
2022-11-20T17:50:46.755Z,11.57
2022-11-20T17:53:18.268Z,13.00
2022-11-20T17:56:42.080Z,11.23
2022-11-20T17:59:44.749Z,11.37
2022-11-20T18:02:42.573Z,11.67
2022-11-20T18:05:40.580Z,11.50
2022-11-20T18:11:58.115Z,13.23
2022-11-20T18:15:07.572Z,12.47
2022-11-20T18:18:37.541Z,14.13
2022-11-20T18:21:44.030Z,15.90
2022-11-20T18:24:15.461Z,16.13
2022-11-20T18:30:09.885Z,14.97
2022-11-20T18:33:06.897Z,15.10
2022-11-20T18:35:57.089Z,17.07
2022-11-20T18:38:28.149Z,16.00
2022-11-20T18:43:43.540Z,15.63
2022-11-20T18:46:18.959Z,15.70
2022-11-20T18:48:48.131Z,15.77
2022-11-20T18:51:18.234Z,15.27
2022-11-20T18:53:47.849Z,15.47
2022-11-20T18:56:27.714Z,16.30
2022-11-20T18:59:00.352Z,16.07
2022-11-20T19:01:36.310Z,14.93
2022-11-20T19:04:09.361Z,14.30
2022-11-20T19:06:56.642Z,15.13
2022-11-20T19:09:37.365Z,14.03
2022-11-20T19:15:07.243Z,12.50
2022-11-20T19:17:37.928Z,13.90
2022-11-20T19:20:11.983Z,12.70
2022-11-20T19:23:10.364Z,12.27
2022-11-20T19:25:47.165Z,11.73
2022-11-20T19:28:48.717Z,10.93
2022-11-20T19:31:52.070Z,10.03
2022-11-20T19:35:01.337Z,16.90
2022-11-20T19:37:32.330Z,12.97
2022-11-20T19:40:04.899Z,12.73
2022-11-20T19:43:01.017Z,11.90
2022-11-20T19:45:58.857Z,12.80
2022-11-20T19:48:33.169Z,12.53
2022-11-20T19:51:10.854Z,12.90
2022-11-20T19:53:51.645Z,11.27
2022-11-20T19:57:04.332Z,11.93
2022-11-20T20:00:39.815Z,11.43
2022-11-20T20:03:08.903Z,9.50
2022-11-20T20:05:45.684Z,7.33
2022-11-20T20:08:19.376Z,6.83
2022-11-20T20:10:53.275Z,6.70
2022-11-20T20:13:33.051Z,7.23
2022-11-20T20:16:03.080Z,8.07
2022-11-20T20:21:26.332Z,8.00
2022-11-20T20:24:02.721Z,6.77
2022-11-20T20:26:35.153Z,5.87
2022-11-20T20:29:04.194Z,6.40
2022-11-20T20:31:34.120Z,6.10
2022-11-20T20:34:03.520Z,5.53
2022-11-20T20:36:33.655Z,4.90
2022-11-20T20:39:05.079Z,4.27
2022-11-20T20:41:34.007Z,4.43
2022-11-20T20:44:20.599Z,4.47
2022-11-20T20:46:49.091Z,4.27
2022-11-20T20:49:22.106Z,4.00
2022-11-20T20:51:50.648Z,3.97
2022-11-20T20:54:24.792Z,3.63
2022-11-20T20:56:54.472Z,3.40
2022-11-20T20:59:24.149Z,4.07
2022-11-20T21:01:56.732Z,3.70
2022-11-20T21:04:25.760Z,4.10
2022-11-20T21:06:55.148Z,3.90
2022-11-20T21:09:28.694Z,3.80
2022-11-20T21:11:57.026Z,3.60
2022-11-20T21:14:25.615Z,3.13
2022-11-20T21:16:57.477Z,3.17
2022-11-20T21:19:26.635Z,3.27
2022-11-20T21:22:04.935Z,2.70
2022-11-20T21:24:37.473Z,2.30
2022-11-20T21:27:07.147Z,2.30
2022-11-20T21:29:36.681Z,2.20
2022-11-20T21:32:06.165Z,2.33
2022-11-20T21:34:34.931Z,2.10
2022-11-20T21:37:05.784Z,1.90
2022-11-20T21:39:50.872Z,2.10
2022-11-20T21:42:19.176Z,1.60
2022-11-20T21:44:47.965Z,1.60
2022-11-20T21:47:17.794Z,1.80
2022-11-20T21:49:46.724Z,1.83
2022-11-20T21:52:19.228Z,1.63
2022-11-20T21:54:50.242Z,1.30
2022-11-20T21:57:19.829Z,1.80
2022-11-20T21:59:48.176Z,1.60
2022-11-20T22:02:17.935Z,1.70
2022-11-20T22:04:49.025Z,1.80
2022-11-20T22:07:17.417Z,1.57
2022-11-20T22:09:47.788Z,1.90
2022-11-20T22:12:20.291Z,1.90
2022-11-20T22:14:50.020Z,1.70
2022-11-20T22:17:40.901Z,2.20
2022-11-20T22:20:12.008Z,2.40
2022-11-20T22:22:41.712Z,2.87
2022-11-20T22:25:10.773Z,2.63
2022-11-20T22:27:52.349Z,2.63
2022-11-20T22:30:39.601Z,2.67
2022-11-20T22:33:13.488Z,2.80
2022-11-20T22:35:42.320Z,2.57
2022-11-20T22:38:13.396Z,2.10
2022-11-20T22:40:43.831Z,2.20
2022-11-20T22:43:16.303Z,2.33
2022-11-20T22:45:45.697Z,2.03
2022-11-20T22:48:14.067Z,2.00
2022-11-20T22:50:43.704Z,1.97
2022-11-20T22:53:13.112Z,1.63
2022-11-20T22:55:43.170Z,1.87
2022-11-20T22:58:11.561Z,1.73
2022-11-20T23:00:41.575Z,1.63
2022-11-20T23:03:09.792Z,2.07
2022-11-20T23:05:39.780Z,1.90
2022-11-20T23:08:08.126Z,2.07
2022-11-20T23:10:36.469Z,1.70
2022-11-20T23:13:08.454Z,2.03
2022-11-20T23:15:43.814Z,2.00
2022-11-20T23:18:14.760Z,2.30
2022-11-20T23:20:44.762Z,1.97
2022-11-20T23:23:13.844Z,2.37
2022-11-20T23:25:43.849Z,1.87
2022-11-20T23:28:12.134Z,1.90
2022-11-20T23:30:41.773Z,2.00
2022-11-20T23:33:11.584Z,1.87
2022-11-20T23:35:41.724Z,1.60
2022-11-20T23:38:10.953Z,1.80
2022-11-20T23:40:41.486Z,1.77
2022-11-20T23:43:19.710Z,1.93
2022-11-20T23:45:51.411Z,1.80
2022-11-20T23:48:21.004Z,1.87
2022-11-20T23:50:51.304Z,1.97
2022-11-20T23:53:22.168Z,2.07
2022-11-20T23:55:54.888Z,2.00
2022-11-20T23:58:25.852Z,2.30
